Time;durP1;ratioP1;P1;durP2;ratioP2;P2;SDS_P1;SDS_P2;PMS_P1;PMS_P2;Temp;Humidity;BMP_temperature;BMP_pressure;BME280_temperature;BME280_humidity;BME280_pressure;Samples;Min_cycle;Max_cycle;Signal;HPM_P1;HPM_P2
2023/05/05 00:02:11;;;;;;;10.18;2.22;;;;;;;;;;5043765;28;20108;-71
2023/05/05 00:04:37;;;;;;;12.40;3.25;;;;;;;;;;5051370;28;20021;-71
2023/05/05 00:07:03;;;;;;;14.45;2.92;;;;;;;;;;5050691;28;20021;-71
2023/05/05 00:09:29;;;;;;;9.32;2.80;;;;;;;;;;5051798;28;20056;-72
2023/05/05 00:11:55;;;;;;;12.45;2.58;;;;;;;;;;5051637;28;20032;-71
2023/05/05 00:14:21;;;;;;;11.52;2.40;;;;;;;;;;5051688;28;20020;-71
2023/05/05 00:16:47;;;;;;;12.60;2.28;;;;;;;;;;5051624;28;20104;-72
2023/05/05 00:19:13;;;;;;;13.52;2.40;;;;;;;;;;5051605;28;20442;-70
2023/05/05 00:21:38;;;;;;;8.75;2.15;;;;;;;;;;5051502;28;20064;-71
2023/05/05 00:24:05;;;;;;;10.40;2.40;;;;;;;;;;5051292;28;20025;-73
2023/05/05 00:26:31;;;;;;;9.60;2.55;;;;;;;;;;5051691;28;20040;-71
2023/05/05 00:28:56;;;;;;;11.20;2.60;;;;;;;;;;5051614;28;20021;-71
2023/05/05 00:31:22;;;;;;;14.13;2.58;;;;;;;;;;5051439;28;20031;-70
2023/05/05 00:33:48;;;;;;;8.38;2.05;;;;;;;;;;5051124;28;20021;-70
2023/05/05 00:36:14;;;;;;;16.17;2.40;;;;;;;;;;5051369;28;20029;-70
2023/05/05 00:38:41;;;;;;;11.43;2.45;;;;;;;;;;5051268;28;20100;-70
2023/05/05 00:41:07;;;;;;;8.32;2.30;;;;;;;;;;5051458;28;20029;-71
2023/05/05 00:43:32;;;;;;;12.32;2.50;;;;;;;;;;5051029;28;20471;-70
2023/05/05 00:46:05;;;;;;;9.32;2.60;;;;;;;;;;5051251;28;20036;-70
2023/05/05 00:48:32;;;;;;;10.20;2.20;;;;;;;;;;5051181;28;20032;-70
2023/05/05 00:50:58;;;;;;;10.05;2.58;;;;;;;;;;5051732;28;20025;-71
2023/05/05 00:53:26;;;;;;;14.77;2.30;;;;;;;;;;5056604;28;20020;-69
2023/05/05 00:55:52;;;;;;;13.52;2.85;;;;;;;;;;5071148;28;20082;-70
2023/05/05 00:58:18;;;;;;;9.77;2.53;;;;;;;;;;5061740;28;20056;-71
2023/05/05 01:00:44;;;;;;;12.68;2.60;;;;;;;;;;5052068;28;20083;-71
2023/05/05 01:03:14;;;;;;;11.63;2.90;;;;;;;;;;5051603;28;20029;-72
2023/05/05 01:06:06;;;;;;;15.20;2.70;;;;;;;;;;5052063;28;20094;-71
2023/05/05 01:08:49;;;;;;;13.55;2.80;;;;;;;;;;5049041;28;20040;-71
2023/05/05 01:11:18;;;;;;;12.52;2.50;;;;;;;;;;5051061;28;20212;-70
2023/05/05 01:13:49;;;;;;;13.60;2.47;;;;;;;;;;5052498;28;20058;-71
2023/05/05 01:16:20;;;;;;;14.88;2.70;;;;;;;;;;5054976;28;20493;-70
2023/05/05 01:19:05;;;;;;;13.35;2.97;;;;;;;;;;5055229;28;20029;-71
2023/05/05 01:21:53;;;;;;;23.05;3.53;;;;;;;;;;5054740;28;20030;-71
2023/05/05 01:24:21;;;;;;;11.23;2.80;;;;;;;;;;5054722;28;20040;-70
2023/05/05 01:27:12;;;;;;;9.18;2.58;;;;;;;;;;5054828;28;20446;-71
2023/05/05 01:29:54;;;;;;;10.82;2.78;;;;;;;;;;5054624;28;20051;-71
2023/05/05 01:32:24;;;;;;;11.40;2.70;;;;;;;;;;5052242;28;20100;-71
2023/05/05 01:34:59;;;;;;;13.50;2.75;;;;;;;;;;5054433;28;20057;-71
2023/05/05 01:37:31;;;;;;;14.23;3.10;;;;;;;;;;5054549;28;20036;-70
2023/05/05 01:39:59;;;;;;;17.55;2.85;;;;;;;;;;5054451;28;20094;-71
2023/05/05 01:42:26;;;;;;;12.30;3.05;;;;;;;;;;5054154;28;20025;-71
2023/05/05 01:44:52;;;;;;;14.63;2.90;;;;;;;;;;5054245;28;20511;-70
2023/05/05 01:47:20;;;;;;;9.65;2.72;;;;;;;;;;5054692;28;20021;-71
2023/05/05 01:49:46;;;;;;;9.23;2.80;;;;;;;;;;5054221;28;20025;-71
2023/05/05 01:52:16;;;;;;;11.60;3.22;;;;;;;;;;5053856;28;20029;-71
2023/05/05 01:54:43;;;;;;;17.02;3.78;;;;;;;;;;5053101;28;20017;-70
2023/05/05 01:57:10;;;;;;;12.73;3.00;;;;;;;;;;5053212;28;20481;-72
2023/05/05 01:59:38;;;;;;;12.63;3.83;;;;;;;;;;5053030;28;20442;-71
2023/05/05 02:02:05;;;;;;;10.65;2.88;;;;;;;;;;5054117;28;20024;-71
2023/05/05 02:04:32;;;;;;;15.15;3.65;;;;;;;;;;5054907;28;20033;-72
2023/05/05 02:06:59;;;;;;;9.68;3.10;;;;;;;;;;5054302;28;20033;-71
2023/05/05 02:09:26;;;;;;;11.85;3.70;;;;;;;;;;5054284;28;20112;-72
2023/05/05 02:11:52;;;;;;;13.48;3.10;;;;;;;;;;5054937;28;20025;-72
2023/05/05 02:14:19;;;;;;;13.25;3.10;;;;;;;;;;5056463;28;20032;-72
2023/05/05 02:16:46;;;;;;;11.98;2.97;;;;;;;;;;5054910;28;20029;-72
2023/05/05 02:19:12;;;;;;;16.50;3.25;;;;;;;;;;5053453;28;20033;-70
2023/05/05 02:21:40;;;;;;;13.85;3.47;;;;;;;;;;5052893;28;20029;-71
2023/05/05 02:24:06;;;;;;;19.63;4.05;;;;;;;;;;5052365;28;20025;-71
2023/05/05 02:26:34;;;;;;;11.05;3.10;;;;;;;;;;5052382;28;20060;-71
2023/05/05 02:29:06;;;;;;;9.18;3.13;;;;;;;;;;5053174;28;20032;-71
2023/05/05 02:31:34;;;;;;;12.93;3.42;;;;;;;;;;5052617;28;20044;-71
2023/05/05 02:34:01;;;;;;;16.48;3.75;;;;;;;;;;5052323;28;20441;-71
2023/05/05 02:36:29;;;;;;;15.65;3.38;;;;;;;;;;5052460;28;20024;-70
2023/05/05 02:38:57;;;;;;;18.13;4.00;;;;;;;;;;5052297;28;20051;-71
2023/05/05 02:41:24;;;;;;;15.07;2.83;;;;;;;;;;5052357;28;20021;-70
2023/05/05 02:43:50;;;;;;;15.98;3.63;;;;;;;;;;5051974;28;20051;-71
2023/05/05 02:46:16;;;;;;;18.25;3.80;;;;;;;;;;5053101;28;20078;-70
2023/05/05 02:48:42;;;;;;;9.25;3.58;;;;;;;;;;5053193;28;20032;-70
2023/05/05 02:51:08;;;;;;;13.25;3.30;;;;;;;;;;5053101;28;20542;-70
2023/05/05 02:53:34;;;;;;;13.63;3.85;;;;;;;;;;5052279;28;20033;-70
2023/05/05 02:56:03;;;;;;;14.85;3.83;;;;;;;;;;5052199;28;20105;-70
2023/05/05 02:58:34;;;;;;;15.90;3.38;;;;;;;;;;5052084;28;20071;-71
2023/05/05 03:01:06;;;;;;;15.77;3.40;;;;;;;;;;5052101;28;20037;-70
2023/05/05 03:03:39;;;;;;;15.32;3.70;;;;;;;;;;5051581;28;20403;-69
2023/05/05 03:06:14;;;;;;;12.38;3.38;;;;;;;;;;5052129;28;20021;-71
2023/05/05 03:08:42;;;;;;;17.33;3.22;;;;;;;;;;5051700;28;20501;-70
2023/05/05 03:11:14;;;;;;;12.20;3.50;;;;;;;;;;5051844;28;20025;-69
2023/05/05 03:13:42;;;;;;;14.48;3.17;;;;;;;;;;5051461;28;20024;-70
2023/05/05 03:16:08;;;;;;;17.45;3.75;;;;;;;;;;5051254;28;20114;-71
2023/05/05 03:18:36;;;;;;;13.55;3.72;;;;;;;;;;5051682;28;20021;-70
2023/05/05 03:21:07;;;;;;;16.73;3.67;;;;;;;;;;5051808;28;20036;-71
2023/05/05 03:23:33;;;;;;;18.27;4.18;;;;;;;;;;5051588;28;20036;-71
2023/05/05 03:25:59;;;;;;;13.77;4.00;;;;;;;;;;5051809;28;20025;-70
2023/05/05 03:28:25;;;;;;;16.42;3.67;;;;;;;;;;5051352;28;20024;-71
2023/05/05 03:30:51;;;;;;;15.32;4.15;;;;;;;;;;5051336;28;20031;-72
2023/05/05 03:33:17;;;;;;;30.92;4.88;;;;;;;;;;5051212;28;20035;-71
2023/05/05 03:35:43;;;;;;;17.10;4.53;;;;;;;;;;5051663;28;20025;-72
2023/05/05 03:38:09;;;;;;;15.15;3.97;;;;;;;;;;5052722;28;20043;-70
2023/05/05 03:40:35;;;;;;;22.00;4.90;;;;;;;;;;5052847;28;20029;-70
2023/05/05 03:43:01;;;;;;;19.65;4.60;;;;;;;;;;5052658;28;20040;-70
2023/05/05 03:45:27;;;;;;;16.13;4.43;;;;;;;;;;5051962;28;20032;-70
2023/05/05 03:47:53;;;;;;;14.20;3.97;;;;;;;;;;5051968;28;20086;-70
2023/05/05 03:50:19;;;;;;;16.23;3.75;;;;;;;;;;5051795;28;20025;-71
2023/05/05 03:52:46;;;;;;;23.98;4.55;;;;;;;;;;5052197;28;20017;-72
2023/05/05 03:55:12;;;;;;;13.77;4.32;;;;;;;;;;5052202;28;20056;-71
2023/05/05 03:57:38;;;;;;;13.48;4.63;;;;;;;;;;5051908;28;20033;-71
2023/05/05 04:00:04;;;;;;;17.13;5.13;;;;;;;;;;5053194;28;20032;-71
2023/05/05 04:02:30;;;;;;;17.42;5.53;;;;;;;;;;5051146;28;20449;-72
2023/05/05 04:04:56;;;;;;;22.02;5.35;;;;;;;;;;5051516;28;20025;-71
2023/05/05 04:07:22;;;;;;;24.88;5.25;;;;;;;;;;5051679;28;20580;-70
2023/05/05 04:09:48;;;;;;;22.17;6.28;;;;;;;;;;5052140;28;20020;-69
2023/05/05 04:12:14;;;;;;;23.60;5.50;;;;;;;;;;5051624;28;20395;-70
2023/05/05 04:14:40;;;;;;;18.83;5.65;;;;;;;;;;5051278;28;20436;-70
2023/05/05 04:17:06;;;;;;;25.15;6.22;;;;;;;;;;5051157;28;20242;-70
2023/05/05 04:19:32;;;;;;;19.02;5.75;;;;;;;;;;5051020;28;20048;-71
2023/05/05 04:21:59;;;;;;;23.10;5.97;;;;;;;;;;5051024;28;20029;-71
2023/05/05 04:24:25;;;;;;;23.98;5.68;;;;;;;;;;5051027;28;20028;-72
2023/05/05 04:26:51;;;;;;;23.05;6.32;;;;;;;;;;5050890;28;20131;-71
2023/05/05 04:29:17;;;;;;;22.23;7.22;;;;;;;;;;5050264;28;20043;-71
2023/05/05 04:31:43;;;;;;;15.52;6.30;;;;;;;;;;5050312;28;20492;-71
2023/05/05 04:34:09;;;;;;;18.65;5.95;;;;;;;;;;5050532;28;20033;-71
2023/05/05 04:36:35;;;;;;;25.50;6.45;;;;;;;;;;5050750;28;20679;-73
2023/05/05 04:39:01;;;;;;;21.30;6.97;;;;;;;;;;5050479;28;20083;-71
2023/05/05 04:41:28;;;;;;;21.90;6.85;;;;;;;;;;5050313;28;20079;-70
2023/05/05 04:43:54;;;;;;;23.02;6.80;;;;;;;;;;5050017;28;20116;-72
2023/05/05 04:46:20;;;;;;;27.33;7.15;;;;;;;;;;5050024;28;20025;-72
2023/05/05 04:48:46;;;;;;;19.73;6.75;;;;;;;;;;5049552;28;20057;-73
2023/05/05 04:51:12;;;;;;;25.17;7.50;;;;;;;;;;5053565;28;20045;-72
2023/05/05 04:53:38;;;;;;;24.23;7.30;;;;;;;;;;5053663;28;20079;-73
2023/05/05 04:56:04;;;;;;;34.95;7.57;;;;;;;;;;5056181;28;20104;-71
2023/05/05 04:58:30;;;;;;;21.17;7.03;;;;;;;;;;5055146;28;20044;-72
2023/05/05 05:00:57;;;;;;;19.67;7.50;;;;;;;;;;5054982;28;20029;-70
2023/05/05 05:03:23;;;;;;;20.95;7.53;;;;;;;;;;5055133;28;20025;-74
2023/05/05 05:05:49;;;;;;;26.55;7.25;;;;;;;;;;5055640;28;20143;-71
2023/05/05 05:08:15;;;;;;;25.23;7.35;;;;;;;;;;5054712;28;20060;-71
2023/05/05 05:10:42;;;;;;;24.23;7.20;;;;;;;;;;5055066;28;20478;-71
2023/05/05 05:13:08;;;;;;;25.05;7.95;;;;;;;;;;5055131;28;20031;-72
2023/05/05 05:15:36;;;;;;;28.50;8.38;;;;;;;;;;5055333;28;20025;-71
2023/05/05 05:18:02;;;;;;;32.13;8.68;;;;;;;;;;5054884;28;20021;-72
2023/05/05 05:20:29;;;;;;;19.98;6.75;;;;;;;;;;5054714;28;20029;-73
2023/05/05 05:22:56;;;;;;;24.23;8.40;;;;;;;;;;5050997;28;20076;-73
2023/05/05 05:25:22;;;;;;;22.95;7.95;;;;;;;;;;5060722;28;20035;-72
2023/05/05 05:27:48;;;;;;;24.65;7.97;;;;;;;;;;5054201;28;20105;-75
2023/05/05 05:30:14;;;;;;;22.30;7.47;;;;;;;;;;5054713;28;20041;-72
2023/05/05 05:32:40;;;;;;;23.75;7.65;;;;;;;;;;5059196;28;20042;-72
2023/05/05 05:35:06;;;;;;;31.33;8.02;;;;;;;;;;5054958;28;20375;-72
2023/05/05 05:37:33;;;;;;;17.05;6.78;;;;;;;;;;5054738;28;20025;-72
2023/05/05 05:39:59;;;;;;;30.55;8.07;;;;;;;;;;5054776;28;20544;-77
2023/05/05 05:42:25;;;;;;;23.55;7.90;;;;;;;;;;5054048;28;20101;-71
2023/05/05 05:44:51;;;;;;;23.83;8.50;;;;;;;;;;5053972;28;20031;-74
2023/05/05 05:47:17;;;;;;;22.50;8.23;;;;;;;;;;5053831;28;20048;-72
2023/05/05 05:49:43;;;;;;;33.33;8.25;;;;;;;;;;5054159;28;20028;-73
2023/05/05 05:52:09;;;;;;;28.73;7.78;;;;;;;;;;5053754;28;20108;-73
2023/05/05 05:54:35;;;;;;;24.52;7.63;;;;;;;;;;5054297;28;20039;-73
2023/05/05 05:57:01;;;;;;;25.23;7.38;;;;;;;;;;5055909;28;20083;-73
2023/05/05 05:59:27;;;;;;;21.13;8.23;;;;;;;;;;5052617;28;20486;-74
2023/05/05 06:01:55;;;;;;;19.90;7.43;;;;;;;;;;5053718;28;20028;-74
2023/05/05 06:04:21;;;;;;;23.15;7.63;;;;;;;;;;5053855;28;20032;-72
2023/05/05 06:06:46;;;;;;;27.92;7.32;;;;;;;;;;5053614;28;20036;-72
2023/05/05 06:09:13;;;;;;;23.63;7.70;;;;;;;;;;5054009;28;20538;-72
2023/05/05 06:11:39;;;;;;;27.60;8.00;;;;;;;;;;5053584;28;20025;-71
2023/05/05 06:14:05;;;;;;;27.15;7.72;;;;;;;;;;5053716;28;20155;-70
2023/05/05 06:16:31;;;;;;;18.27;6.65;;;;;;;;;;5053756;28;20108;-71
2023/05/05 06:18:57;;;;;;;19.02;6.82;;;;;;;;;;5053932;28;20437;-69
2023/05/05 06:21:23;;;;;;;21.85;6.35;;;;;;;;;;5053724;28;20032;-70
2023/05/05 06:23:49;;;;;;;30.88;7.20;;;;;;;;;;5052515;28;20033;-70
2023/05/05 06:26:16;;;;;;;20.95;7.07;;;;;;;;;;5054250;28;20025;-71
2023/05/05 06:28:42;;;;;;;25.23;6.90;;;;;;;;;;5054154;28;20140;-71
2023/05/05 06:31:08;;;;;;;18.27;6.50;;;;;;;;;;5055021;28;20036;-72
2023/05/05 06:33:33;;;;;;;22.08;5.93;;;;;;;;;;5054635;28;20021;-71
2023/05/05 06:35:59;;;;;;;27.67;6.60;;;;;;;;;;5054876;28;20113;-71
2023/05/05 06:38:25;;;;;;;20.38;7.00;;;;;;;;;;5054628;28;20040;-71
2023/05/05 06:40:51;;;;;;;20.55;6.68;;;;;;;;;;5055015;28;20029;-72
2023/05/05 06:43:17;;;;;;;23.70;6.72;;;;;;;;;;5053477;28;20032;-71
2023/05/05 06:45:44;;;;;;;23.35;7.00;;;;;;;;;;5054230;28;20029;-72
2023/05/05 06:48:10;;;;;;;20.20;7.35;;;;;;;;;;5054252;28;20104;-71
2023/05/05 06:50:36;;;;;;;21.90;6.63;;;;;;;;;;5054345;28;20481;-71
2023/05/05 06:53:02;;;;;;;19.33;6.45;;;;;;;;;;5054566;28;20025;-70
2023/05/05 06:55:28;;;;;;;29.42;6.55;;;;;;;;;;5053637;28;20025;-71
2023/05/05 06:57:54;;;;;;;24.02;6.55;;;;;;;;;;5052364;28;20055;-70
2023/05/05 07:00:21;;;;;;;17.88;6.20;;;;;;;;;;5052802;28;20025;-71
2023/05/05 07:02:47;;;;;;;18.80;6.60;;;;;;;;;;5052014;28;20109;-70
2023/05/05 07:05:13;;;;;;;20.25;6.82;;;;;;;;;;5051887;28;20649;-71
2023/05/05 07:07:40;;;;;;;22.58;6.70;;;;;;;;;;5052721;28;20140;-71
2023/05/05 07:10:08;;;;;;;18.25;5.93;;;;;;;;;;5052230;28;20114;-71
2023/05/05 07:12:34;;;;;;;24.00;6.72;;;;;;;;;;5052405;28;20104;-72
2023/05/05 07:15:00;;;;;;;22.77;6.80;;;;;;;;;;5052141;28;20019;-72
2023/05/05 07:17:26;;;;;;;21.98;6.25;;;;;;;;;;5051967;28;20108;-71
2023/05/05 07:19:53;;;;;;;15.27;5.95;;;;;;;;;;5053202;28;20053;-72
2023/05/05 07:22:19;;;;;;;21.35;6.35;;;;;;;;;;5052005;28;20083;-70
2023/05/05 07:24:45;;;;;;;19.48;5.93;;;;;;;;;;5051952;28;20029;-70
2023/05/05 07:27:11;;;;;;;22.27;6.15;;;;;;;;;;5051484;28;20119;-70
2023/05/05 07:29:37;;;;;;;17.70;5.82;;;;;;;;;;5051541;28;20052;-71
2023/05/05 07:32:03;;;;;;;22.58;5.97;;;;;;;;;;5051530;28;20025;-70
2023/05/05 07:34:33;;;;;;;13.77;5.50;;;;;;;;;;5052291;28;20385;-71
2023/05/05 07:36:59;;;;;;;22.63;6.30;;;;;;;;;;5050072;28;20033;-71
2023/05/05 07:39:25;;;;;;;16.60;5.47;;;;;;;;;;5051634;28;20114;-71
2023/05/05 07:41:51;;;;;;;22.27;6.55;;;;;;;;;;5051409;28;20033;-71
2023/05/05 07:44:17;;;;;;;18.67;6.03;;;;;;;;;;5051977;28;20128;-71
2023/05/05 07:46:43;;;;;;;19.80;5.47;;;;;;;;;;5051855;28;20482;-73
2023/05/05 07:49:09;;;;;;;20.17;6.68;;;;;;;;;;5051236;28;20032;-70
2023/05/05 07:51:35;;;;;;;22.38;6.38;;;;;;;;;;5051501;28;20017;-73
2023/05/05 07:54:01;;;;;;;21.90;6.40;;;;;;;;;;5050696;28;20385;-71
2023/05/05 07:56:27;;;;;;;15.32;5.97;;;;;;;;;;5051673;28;20036;-68
2023/05/05 07:58:53;;;;;;;23.90;7.32;;;;;;;;;;5051771;28;20481;-70
2023/05/05 08:01:19;;;;;;;19.52;5.90;;;;;;;;;;5051490;28;20591;-71
2023/05/05 08:03:45;;;;;;;23.38;6.57;;;;;;;;;;5051667;28;20025;-70
2023/05/05 08:06:11;;;;;;;19.42;5.85;;;;;;;;;;5051561;28;20524;-71
2023/05/05 08:08:37;;;;;;;23.23;6.72;;;;;;;;;;5051785;28;20025;-71
2023/05/05 08:11:05;;;;;;;25.20;6.07;;;;;;;;;;5051977;28;20025;-70
2023/05/05 08:13:31;;;;;;;18.65;5.72;;;;;;;;;;5051457;28;20028;-71
2023/05/05 08:15:57;;;;;;;19.35;6.03;;;;;;;;;;5051897;28;20037;-70
2023/05/05 08:18:23;;;;;;;30.02;6.68;;;;;;;;;;5051172;28;20032;-71
2023/05/05 08:20:49;;;;;;;23.67;6.20;;;;;;;;;;5051578;28;20025;-71
2023/05/05 08:23:16;;;;;;;26.35;5.65;;;;;;;;;;5050545;28;20033;-70
2023/05/05 08:25:41;;;;;;;22.38;6.85;;;;;;;;;;5051356;28;20025;-70
2023/05/05 08:28:07;;;;;;;21.88;6.35;;;;;;;;;;5052221;28;20439;-70
2023/05/05 08:30:34;;;;;;;18.55;6.20;;;;;;;;;;5051517;28;20051;-69
2023/05/05 08:33:00;;;;;;;21.10;7.38;;;;;;;;;;5051034;28;20029;-71
2023/05/05 08:35:26;;;;;;;25.48;6.53;;;;;;;;;;5051553;28;20083;-71
2023/05/05 08:37:52;;;;;;;16.08;5.78;;;;;;;;;;5052591;28;20031;-70
2023/05/05 08:40:20;;;;;;;15.40;5.53;;;;;;;;;;5052941;28;20479;-70
2023/05/05 08:42:46;;;;;;;20.98;5.75;;;;;;;;;;5052070;28;20104;-71
2023/05/05 08:45:12;;;;;;;15.40;6.18;;;;;;;;;;5052473;28;20474;-71
2023/05/05 08:47:38;;;;;;;18.38;5.55;;;;;;;;;;5053609;28;20021;-72
2023/05/05 08:50:04;;;;;;;20.00;5.72;;;;;;;;;;5052504;28;20036;-71
2023/05/05 08:52:42;;;;;;;18.88;6.15;;;;;;;;;;5052614;28;20364;-70
2023/05/05 08:55:11;;;;;;;19.58;6.57;;;;;;;;;;5051502;28;20364;-70
2023/05/05 08:57:49;;;;;;;20.85;6.60;;;;;;;;;;5051375;28;20037;-70
2023/05/05 09:00:15;;;;;;;25.20;6.50;;;;;;;;;;5051264;28;20036;-70
2023/05/05 09:02:42;;;;;;;18.17;6.50;;;;;;;;;;5051584;28;20024;-71
2023/05/05 09:05:08;;;;;;;24.48;6.13;;;;;;;;;;5052312;28;20292;-72
2023/05/05 09:07:34;;;;;;;26.08;6.05;;;;;;;;;;5051963;28;20311;-70
2023/05/05 09:10:03;;;;;;;18.38;6.43;;;;;;;;;;5051414;28;20539;-70
2023/05/05 09:12:30;;;;;;;18.95;5.82;;;;;;;;;;5050818;28;20100;-70
2023/05/05 09:14:56;;;;;;;22.40;5.82;;;;;;;;;;5051043;28;20379;-72
2023/05/05 09:17:24;;;;;;;27.48;6.70;;;;;;;;;;5051323;28;20045;-72
2023/05/05 09:20:03;;;;;;;17.25;6.20;;;;;;;;;;5051329;28;20025;-71
2023/05/05 09:22:45;;;;;;;18.73;5.88;;;;;;;;;;5052573;28;20506;-71
2023/05/05 09:25:12;;;;;;;19.58;5.70;;;;;;;;;;5051149;28;20021;-72
2023/05/05 09:27:40;;;;;;;25.77;6.55;;;;;;;;;;5051004;28;20087;-71
2023/05/05 09:30:06;;;;;;;18.50;6.40;;;;;;;;;;5050944;28;20021;-71
2023/05/05 09:32:49;;;;;;;19.20;6.22;;;;;;;;;;5050659;28;20078;-72
2023/05/05 09:35:15;;;;;;;16.67;6.22;;;;;;;;;;5053839;28;20032;-71
2023/05/05 09:37:41;;;;;;;19.20;6.55;;;;;;;;;;5054861;28;20036;-72
2023/05/05 09:40:08;;;;;;;16.85;6.78;;;;;;;;;;5054532;28;20025;-71
2023/05/05 09:42:37;;;;;;;25.33;6.20;;;;;;;;;;5054352;28;20079;-70
2023/05/05 09:45:04;;;;;;;15.63;5.90;;;;;;;;;;5054449;28;20021;-72
2023/05/05 09:47:36;;;;;;;23.25;5.95;;;;;;;;;;5054505;28;20021;-70
2023/05/05 09:50:03;;;;;;;19.50;5.93;;;;;;;;;;5054156;28;20060;-71
2023/05/05 09:52:29;;;;;;;20.70;5.60;;;;;;;;;;5054049;28;20021;-71
2023/05/05 09:54:56;;;;;;;21.67;5.63;;;;;;;;;;5054329;28;20021;-70
2023/05/05 09:57:40;;;;;;;22.95;5.43;;;;;;;;;;5054335;28;20414;-71
2023/05/05 10:00:06;;;;;;;16.37;5.57;;;;;;;;;;5054363;28;20029;-71
2023/05/05 10:02:37;;;;;;;15.45;5.60;;;;;;;;;;5053894;28;20422;-71
2023/05/05 10:05:12;;;;;;;17.55;6.07;;;;;;;;;;5054272;28;20028;-70
2023/05/05 10:07:39;;;;;;;16.67;6.10;;;;;;;;;;5053749;28;20112;-70
2023/05/05 10:10:06;;;;;;;20.42;6.93;;;;;;;;;;5053751;28;20025;-72
2023/05/05 10:12:33;;;;;;;18.27;5.45;;;;;;;;;;5053291;28;20029;-71
2023/05/05 10:15:01;;;;;;;16.30;6.00;;;;;;;;;;5054075;28;20096;-71
2023/05/05 10:17:28;;;;;;;18.60;5.70;;;;;;;;;;5054403;28;20021;-71
2023/05/05 10:19:56;;;;;;;17.40;6.20;;;;;;;;;;5056064;28;20029;-70
2023/05/05 10:22:22;;;;;;;19.83;6.38;;;;;;;;;;5053040;28;20029;-70
2023/05/05 10:25:15;;;;;;;21.02;5.70;;;;;;;;;;5059920;28;20139;-70
2023/05/05 10:27:45;;;;;;;18.30;5.30;;;;;;;;;;5056058;28;20055;-71
2023/05/05 10:30:22;;;;;;;19.38;5.85;;;;;;;;;;5058751;28;20017;-70
2023/05/05 10:32:49;;;;;;;16.85;5.20;;;;;;;;;;5058788;28;20422;-70
2023/05/05 10:35:17;;;;;;;16.98;6.07;;;;;;;;;;5059238;28;20040;-71
2023/05/05 10:37:44;;;;;;;16.00;5.53;;;;;;;;;;5050674;28;20021;-72
2023/05/05 10:40:10;;;;;;;13.93;5.28;;;;;;;;;;5054505;28;20017;-72
2023/05/05 10:42:38;;;;;;;15.88;5.47;;;;;;;;;;5051889;28;20537;-70
2023/05/05 10:45:05;;;;;;;28.30;5.32;;;;;;;;;;5056108;28;20017;-71
2023/05/05 10:47:31;;;;;;;18.40;5.53;;;;;;;;;;5056186;28;20017;-71
2023/05/05 10:50:06;;;;;;;16.65;5.68;;;;;;;;;;5056494;28;20033;-72
2023/05/05 10:52:32;;;;;;;18.17;5.55;;;;;;;;;;5060668;28;20017;-70
2023/05/05 10:55:13;;;;;;;23.27;5.68;;;;;;;;;;5073603;28;20032;-72
2023/05/05 10:57:41;;;;;;;15.90;5.05;;;;;;;;;;5072988;28;20060;-70
2023/05/05 11:00:07;;;;;;;15.90;5.10;;;;;;;;;;5073011;28;20035;-71
2023/05/05 11:02:34;;;;;;;19.38;4.90;;;;;;;;;;5072700;28;20382;-70
2023/05/05 11:05:04;;;;;;;22.08;5.05;;;;;;;;;;5059360;28;20041;-71
2023/05/05 11:07:31;;;;;;;16.27;5.53;;;;;;;;;;5050407;28;20188;-71
2023/05/05 11:10:00;;;;;;;22.90;5.10;;;;;;;;;;5051085;28;20012;-71
2023/05/05 11:12:27;;;;;;;12.98;4.75;;;;;;;;;;5060740;28;20021;-72
2023/05/05 11:15:12;;;;;;;19.30;5.13;;;;;;;;;;5058644;28;20077;-72
2023/05/05 11:17:45;;;;;;;13.55;4.93;;;;;;;;;;5054083;28;20509;-70
2023/05/05 11:20:11;;;;;;;18.05;7.32;;;;;;;;;;5055503;28;20504;-71
2023/05/05 11:22:56;;;;;;;16.33;4.93;;;;;;;;;;5058101;28;20033;-72
2023/05/05 11:25:34;;;;;;;20.65;6.60;;;;;;;;;;5055532;28;20099;-71
2023/05/05 11:28:09;;;;;;;13.20;5.53;;;;;;;;;;5055479;28;20098;-70
2023/05/05 11:30:35;;;;;;;31.40;12.02;;;;;;;;;;5054907;28;20069;-71
2023/05/05 11:33:20;;;;;;;13.85;4.53;;;;;;;;;;5059678;28;20026;-71
2023/05/05 11:35:55;;;;;;;16.00;5.22;;;;;;;;;;5055110;28;20024;-71
2023/05/05 11:38:44;;;;;;;23.48;5.18;;;;;;;;;;5059509;28;20456;-69
2023/05/05 11:41:10;;;;;;;10.13;4.65;;;;;;;;;;5041793;28;20032;-71
2023/05/05 11:43:36;;;;;;;11.98;4.32;;;;;;;;;;5056399;28;20037;-71
2023/05/05 11:46:11;;;;;;;19.92;5.10;;;;;;;;;;5057403;28;20056;-71
2023/05/05 11:48:46;;;;;;;21.55;4.30;;;;;;;;;;5045819;28;20068;-70
2023/05/05 11:51:13;;;;;;;17.15;4.82;;;;;;;;;;5038562;28;20025;-72
2023/05/05 11:53:49;;;;;;;15.07;5.10;;;;;;;;;;5072446;28;20055;-71
2023/05/05 11:56:17;;;;;;;15.65;4.70;;;;;;;;;;5072865;28;20074;-71
2023/05/05 11:58:47;;;;;;;13.55;4.53;;;;;;;;;;5072670;28;20024;-70
2023/05/05 12:01:13;;;;;;;13.00;4.40;;;;;;;;;;5072002;28;20037;-71
2023/05/05 12:03:40;;;;;;;18.80;4.45;;;;;;;;;;5071732;28;20028;-71
2023/05/05 12:06:06;;;;;;;11.32;4.30;;;;;;;;;;5071759;28;20124;-70
2023/05/05 12:08:36;;;;;;;15.65;4.40;;;;;;;;;;5071264;28;20466;-70
2023/05/05 12:11:03;;;;;;;13.77;4.15;;;;;;;;;;5071357;28;20021;-73
2023/05/05 12:13:29;;;;;;;21.40;4.85;;;;;;;;;;5061549;28;20021;-70
2023/05/05 12:15:55;;;;;;;16.77;4.78;;;;;;;;;;5068752;28;20439;-69
2023/05/05 12:18:21;;;;;;;12.20;4.57;;;;;;;;;;5064686;28;20089;-70
2023/05/05 12:20:47;;;;;;;13.88;4.97;;;;;;;;;;5051515;28;20025;-70
2023/05/05 12:23:13;;;;;;;18.80;5.47;;;;;;;;;;5051375;28;20025;-70
2023/05/05 12:25:39;;;;;;;23.45;5.00;;;;;;;;;;5051415;28;20040;-71
2023/05/05 12:28:08;;;;;;;21.92;6.43;;;;;;;;;;5051496;28;20116;-72
2023/05/05 12:30:35;;;;;;;12.77;4.55;;;;;;;;;;5051647;28;20024;-71
2023/05/05 12:33:02;;;;;;;14.40;4.38;;;;;;;;;;5051424;28;20025;-69
2023/05/05 12:35:29;;;;;;;14.85;4.20;;;;;;;;;;5051821;28;20039;-70
2023/05/05 12:37:55;;;;;;;21.73;4.78;;;;;;;;;;5051837;28;20028;-70
2023/05/05 12:40:39;;;;;;;19.88;5.28;;;;;;;;;;5052569;28;20033;-70
2023/05/05 12:43:05;;;;;;;13.98;4.93;;;;;;;;;;5051740;28;20029;-69
2023/05/05 12:45:31;;;;;;;18.70;5.03;;;;;;;;;;5051654;28;20147;-71
2023/05/05 12:47:57;;;;;;;13.75;4.30;;;;;;;;;;5061446;28;20470;-72
2023/05/05 12:50:32;;;;;;;24.23;4.68;;;;;;;;;;5051768;28;20075;-72
2023/05/05 12:52:58;;;;;;;24.27;5.00;;;;;;;;;;5051340;28;20386;-71
2023/05/05 12:55:36;;;;;;;17.70;4.63;;;;;;;;;;5051242;28;20104;-70
2023/05/05 12:58:03;;;;;;;15.82;4.40;;;;;;;;;;5051495;28;20018;-71
2023/05/05 13:00:29;;;;;;;19.02;4.60;;;;;;;;;;5047929;28;20364;-71
2023/05/05 13:02:55;;;;;;;20.08;8.23;;;;;;;;;;5051408;28;20457;-70
2023/05/05 13:05:31;;;;;;;15.40;4.38;;;;;;;;;;5051159;28;20052;-70
2023/05/05 13:07:57;;;;;;;13.35;4.10;;;;;;;;;;5054786;28;20122;-70
2023/05/05 13:10:27;;;;;;;16.58;4.22;;;;;;;;;;5057880;28;20111;-71
2023/05/05 13:12:56;;;;;;;17.58;4.50;;;;;;;;;;5049681;28;20017;-70
2023/05/05 13:15:22;;;;;;;17.38;4.20;;;;;;;;;;5056270;28;20033;-71
2023/05/05 13:17:48;;;;;;;15.38;4.15;;;;;;;;;;5056842;28;20052;-72
2023/05/05 13:20:14;;;;;;;15.63;3.72;;;;;;;;;;5062912;28;20032;-70
2023/05/05 13:22:40;;;;;;;18.10;4.28;;;;;;;;;;5063588;28;20017;-71
2023/05/05 13:25:06;;;;;;;12.02;3.95;;;;;;;;;;5060039;28;20043;-72
2023/05/05 13:27:33;;;;;;;14.32;6.15;;;;;;;;;;5055929;28;20549;-74
2023/05/05 13:29:59;;;;;;;12.13;4.47;;;;;;;;;;5055281;28;20493;-71
2023/05/05 13:32:25;;;;;;;15.48;3.65;;;;;;;;;;5055994;28;20029;-71
2023/05/05 13:34:51;;;;;;;14.43;3.80;;;;;;;;;;5047530;28;20021;-71
2023/05/05 13:37:17;;;;;;;13.20;4.45;;;;;;;;;;5055635;28;20120;-71
2023/05/05 13:39:43;;;;;;;19.33;4.93;;;;;;;;;;5055078;28;20486;-69
2023/05/05 13:42:09;;;;;;;12.35;3.88;;;;;;;;;;5054472;28;20102;-70
2023/05/05 13:44:35;;;;;;;18.77;4.15;;;;;;;;;;5054275;28;20035;-71
2023/05/05 13:47:01;;;;;;;17.98;4.00;;;;;;;;;;5054096;28;20056;-72
2023/05/05 13:49:27;;;;;;;15.50;4.47;;;;;;;;;;5054995;28;20036;-71
2023/05/05 13:51:55;;;;;;;20.77;6.30;;;;;;;;;;5053613;28;20029;-72
2023/05/05 13:54:21;;;;;;;13.70;4.18;;;;;;;;;;5054618;28;20223;-71
2023/05/05 13:56:47;;;;;;;15.43;4.38;;;;;;;;;;5060684;28;20021;-69
2023/05/05 13:59:13;;;;;;;17.05;4.78;;;;;;;;;;5054041;28;20375;-70
2023/05/05 14:01:39;;;;;;;15.38;4.20;;;;;;;;;;5054068;28;20044;-70
2023/05/05 14:04:05;;;;;;;16.83;4.18;;;;;;;;;;5053903;28;20021;-70
2023/05/05 14:06:31;;;;;;;10.48;4.32;;;;;;;;;;5053804;28;20033;-72
2023/05/05 14:08:57;;;;;;;18.25;4.60;;;;;;;;;;5053701;28;20071;-71
2023/05/05 14:11:23;;;;;;;19.55;4.72;;;;;;;;;;5065172;28;20020;-70
2023/05/05 14:13:49;;;;;;;17.27;4.32;;;;;;;;;;5073489;28;20090;-72
2023/05/05 14:16:15;;;;;;;8.77;4.50;;;;;;;;;;5061767;28;20116;-71
2023/05/05 14:18:41;;;;;;;14.00;5.68;;;;;;;;;;5054055;28;20065;-70
2023/05/05 14:21:07;;;;;;;20.05;4.68;;;;;;;;;;5052999;28;20400;-71
2023/05/05 14:23:33;;;;;;;11.77;4.25;;;;;;;;;;5054821;28;20036;-69
2023/05/05 14:25:59;;;;;;;13.30;4.85;;;;;;;;;;5055447;28;20037;-71
2023/05/05 14:28:25;;;;;;;10.70;3.92;;;;;;;;;;5055001;28;20017;-71
2023/05/05 14:30:51;;;;;;;16.98;4.22;;;;;;;;;;5055211;28;20036;-71
2023/05/05 14:33:17;;;;;;;13.00;3.60;;;;;;;;;;5053307;28;20475;-72
2023/05/05 14:35:43;;;;;;;16.23;4.18;;;;;;;;;;5053577;28;20064;-69